Time;durP1;ratioP1;P1;durP2;ratioP2;P2;SDS_P1;SDS_P2;PMS_P1;PMS_P2;Temp;Humidity;BMP_temperature;BMP_pressure;BME280_temperature;BME280_humidity;BME280_pressure;Samples;Min_cycle;Max_cycle;Signal;HPM_P1;HPM_P2
2022/10/02 00:00:40;;;;;;;9.38;1.88;;;13.50;76.10;;;;;;5032409;28;20397;-77
2022/10/02 00:03:20;;;;;;;10.13;2.00;;;13.50;77.50;;;;;;5033178;28;20052;-77
2022/10/02 00:05:56;;;;;;;7.50;1.50;;;13.40;77.70;;;;;;5033842;28;20477;-76
2022/10/02 00:08:34;;;;;;;6.05;1.63;;;13.40;78.30;;;;;;5033273;28;20021;-78
2022/10/02 00:11:25;;;;;;;7.30;1.48;;;13.30;78.80;;;;;;5033046;28;20025;-77
2022/10/02 00:13:57;;;;;;;7.35;1.92;;;13.20;79.30;;;;;;5033419;28;20072;-77
2022/10/02 00:16:37;;;;;;;9.90;1.70;;;13.20;79.60;;;;;;5033015;28;20049;-78
2022/10/02 00:19:03;;;;;;;7.55;1.75;;;13.10;79.90;;;;;;5033364;28;20438;-78
2022/10/02 00:21:49;;;;;;;7.45;1.80;;;13.10;80.50;;;;;;5033237;28;20057;-78
2022/10/02 00:24:19;;;;;;;8.75;1.83;;;13.10;79.30;;;;;;5033311;28;20027;-78
2022/10/02 00:27:14;;;;;;;7.95;1.80;;;13.10;79.00;;;;;;5033104;28;20032;-76
2022/10/02 00:29:48;;;;;;;10.43;1.55;;;13.20;78.20;;;;;;5033220;28;20022;-77
2022/10/02 00:32:26;;;;;;;9.68;1.50;;;13.30;77.50;;;;;;5033021;28;20030;-77
2022/10/02 00:34:59;;;;;;;9.43;1.52;;;13.40;77.00;;;;;;5032998;28;20031;-76
2022/10/02 00:37:43;;;;;;;10.25;2.05;;;13.40;76.60;;;;;;5033082;28;20025;-77
2022/10/02 00:40:39;;;;;;;10.88;1.92;;;13.50;76.50;;;;;;5033100;28;20064;-77
2022/10/02 00:43:22;;;;;;;6.00;1.20;;;13.60;76.20;;;;;;5033088;28;20021;-78
2022/10/02 00:45:48;;;;;;;10.80;1.63;;;13.60;76.20;;;;;;5032936;28;20032;-77
2022/10/02 00:48:22;;;;;;;8.85;1.08;;;13.60;76.20;;;;;;5032973;28;20030;-77
2022/10/02 00:51:06;;;;;;;12.48;2.22;;;13.60;76.20;;;;;;5032715;28;20028;-78
2022/10/02 00:53:37;;;;;;;8.07;1.48;;;13.60;76.20;;;;;;5032977;28;20044;-77
2022/10/02 00:56:32;;;;;;;10.85;1.70;;;13.60;76.00;;;;;;5032861;28;20021;-78
2022/10/02 00:59:23;;;;;;;8.85;1.73;;;13.60;76.10;;;;;;5027233;28;20038;-78
2022/10/02 01:01:59;;;;;;;5.63;1.30;;;13.60;76.40;;;;;;5032727;28;20053;-78
2022/10/02 01:04:35;;;;;;;8.07;1.50;;;13.50;76.50;;;;;;5032819;28;20470;-78
2022/10/02 01:07:03;;;;;;;7.70;1.55;;;13.60;76.40;;;;;;5032776;28;20101;-78
2022/10/02 01:09:28;;;;;;;7.93;1.98;;;13.60;76.50;;;;;;5032663;28;20425;-78
2022/10/02 01:11:54;;;;;;;12.05;1.80;;;13.60;76.30;;;;;;5032744;28;20033;-78
2022/10/02 01:14:30;;;;;;;7.97;1.50;;;13.60;76.20;;;;;;5032737;28;20017;-78
2022/10/02 01:16:55;;;;;;;7.20;1.55;;;13.70;76.00;;;;;;5032610;28;20103;-77
2022/10/02 01:19:24;;;;;;;11.10;1.63;;;13.70;75.80;;;;;;5032616;28;20030;-78
2022/10/02 01:21:57;;;;;;;6.53;1.30;;;13.70;76.30;;;;;;5018008;28;20393;-78
2022/10/02 01:24:33;;;;;;;7.70;1.95;;;13.70;76.80;;;;;;5036617;28;20107;-78
2022/10/02 01:26:59;;;;;;;6.55;1.38;;;13.70;76.30;;;;;;5036641;28;20534;-78
2022/10/02 01:29:24;;;;;;;6.68;1.48;;;13.70;76.30;;;;;;5036369;28;20025;-78
2022/10/02 01:31:50;;;;;;;10.93;1.45;;;13.70;76.30;;;;;;5036394;28;20086;-78
2022/10/02 01:34:16;;;;;;;6.97;1.52;;;13.70;76.40;;;;;;5036337;28;20075;-78
2022/10/02 01:36:42;;;;;;;10.52;1.42;;;13.70;76.20;;;;;;5035899;28;20029;-79
2022/10/02 01:39:07;;;;;;;7.13;1.48;;;13.70;76.00;;;;;;5036356;28;20097;-78
2022/10/02 01:41:38;;;;;;;7.20;1.25;;;13.70;75.90;;;;;;5036419;28;20028;-78
2022/10/02 01:44:04;;;;;;;7.25;1.63;;;13.70;76.00;;;;;;5036799;28;20017;-78
2022/10/02 01:46:33;;;;;;;7.80;1.77;;;13.70;75.80;;;;;;5036023;28;20037;-78
2022/10/02 01:49:23;;;;;;;7.70;1.38;;;13.80;75.90;;;;;;5035887;28;20067;-78
2022/10/02 01:52:00;;;;;;;9.82;1.42;;;13.70;75.70;;;;;;5035996;28;20034;-79
2022/10/02 01:54:39;;;;;;;13.55;2.03;;;13.70;75.80;;;;;;5035961;28;20024;-78
2022/10/02 01:57:35;;;;;;;12.93;1.63;;;13.80;75.60;;;;;;5035844;28;20097;-79
2022/10/02 02:00:08;;;;;;;12.88;1.80;;;13.80;76.30;;;;;;5035922;28;20382;-78
2022/10/02 02:03:00;;;;;;;5.88;1.30;;;13.80;75.90;;;;;;5035758;28;20059;-78
2022/10/02 02:05:51;;;;;;;6.90;1.55;;;13.80;75.80;;;;;;5033968;28;20041;-78
2022/10/02 02:08:31;;;;;;;9.68;1.95;;;13.80;75.80;;;;;;5035637;28;20112;-78
2022/10/02 02:11:11;;;;;;;8.43;1.60;;;13.70;75.50;;;;;;5035685;28;20025;-78
2022/10/02 02:13:57;;;;;;;7.30;1.40;;;13.70;75.90;;;;;;5017791;28;20033;-78
2022/10/02 02:16:39;;;;;;;7.32;1.20;;;13.80;75.80;;;;;;5035304;28;20042;-78
2022/10/02 02:19:09;;;;;;;7.22;1.17;;;13.80;75.50;;;;;;5035552;28;20029;-78
2022/10/02 02:21:49;;;;;;;6.32;1.52;;;13.70;75.70;;;;;;5035480;28;20462;-78
2022/10/02 02:24:21;;;;;;;9.10;1.83;;;13.70;75.50;;;;;;5035451;28;20031;-78
2022/10/02 02:26:49;;;;;;;8.23;1.45;;;13.80;76.00;;;;;;5035500;28;20028;-78
2022/10/02 02:29:18;;;;;;;5.70;1.45;;;13.80;74.80;;;;;;5035325;28;20045;-78
2022/10/02 02:31:49;;;;;;;9.93;2.38;;;13.90;74.70;;;;;;5034732;28;20025;-78
2022/10/02 02:34:20;;;;;;;7.25;1.45;;;13.90;74.30;;;;;;5035301;28;20060;-78
2022/10/02 02:36:51;;;;;;;9.35;1.45;;;13.90;74.20;;;;;;5035182;28;20028;-78
2022/10/02 02:39:33;;;;;;;11.95;2.05;;;13.90;74.30;;;;;;5035167;28;20026;-78
2022/10/02 02:42:03;;;;;;;6.10;1.65;;;13.80;74.10;;;;;;5035008;28;20490;-77
2022/10/02 02:44:39;;;;;;;10.65;1.80;;;13.90;73.80;;;;;;5035127;28;20100;-78
2022/10/02 02:47:24;;;;;;;;;;;13.90;73.50;;;;;;5035429;28;20032;-78
2022/10/02 02:50:13;;;;;;;9.68;1.60;;;13.90;73.00;;;;;;5034989;28;20365;-77
2022/10/02 02:53:01;;;;;;;9.90;1.40;;;13.90;73.40;;;;;;5034498;28;20128;-78
2022/10/02 02:55:57;;;;;;;7.00;1.65;;;13.90;72.60;;;;;;5034826;28;20036;-77
2022/10/02 02:58:32;;;;;;;8.93;1.77;;;13.90;73.00;;;;;;5032908;28;20385;-78
2022/10/02 03:00:58;;;;;;;9.98;1.35;;;13.90;73.20;;;;;;5016654;28;20045;-77
2022/10/02 03:03:23;;;;;;;6.95;1.80;;;13.90;73.50;;;;;;5034442;28;20076;-78
2022/10/02 03:05:56;;;;;;;6.20;1.58;;;13.90;73.50;;;;;;5034544;28;20096;-77
2022/10/02 03:08:28;;;;;;;11.13;1.95;;;13.80;73.30;;;;;;5034367;28;20497;-77
2022/10/02 03:11:08;;;;;;;14.85;2.30;;;13.90;72.70;;;;;;5034556;28;20036;-77
2022/10/02 03:13:40;;;;;;;12.23;1.92;;;13.90;72.30;;;;;;5034816;28;20440;-77
2022/10/02 03:16:17;;;;;;;10.80;1.98;;;13.90;72.20;;;;;;5034304;28;20581;-77
2022/10/02 03:18:48;;;;;;;10.15;1.85;;;13.90;72.30;;;;;;5034444;28;20057;-78
2022/10/02 03:21:25;;;;;;;10.15;1.88;;;13.90;71.90;;;;;;5016501;28;20072;-78
2022/10/02 03:24:09;;;;;;;9.93;1.75;;;13.90;72.30;;;;;;5034393;28;20021;-77
2022/10/02 03:26:45;;;;;;;9.55;1.38;;;13.90;72.40;;;;;;5016397;28;20025;-77
2022/10/02 03:29:23;;;;;;;12.27;1.67;;;13.90;71.70;;;;;;5034124;28;20095;-77
2022/10/02 03:31:50;;;;;;;9.15;1.90;;;14.00;71.20;;;;;;5034061;28;20437;-77
2022/10/02 03:34:16;;;;;;;12.27;2.00;;;14.00;71.20;;;;;;5034132;28;20022;-77
2022/10/02 03:36:44;;;;;;;12.32;2.08;;;14.00;71.30;;;;;;5033936;28;20032;-77
2022/10/02 03:39:10;;;;;;;8.93;1.58;;;14.00;71.50;;;;;;5033912;28;20030;-76
2022/10/02 03:41:36;;;;;;;9.13;1.33;;;14.00;71.40;;;;;;5033832;28;20028;-77
2022/10/02 03:44:01;;;;;;;11.02;1.92;;;14.00;71.50;;;;;;5032880;28;20105;-77
2022/10/02 03:46:27;;;;;;;15.30;2.25;;;14.00;71.50;;;;;;5033747;28;20025;-77
2022/10/02 03:48:55;;;;;;;9.18;1.58;;;14.00;71.30;;;;;;5033635;28;20071;-77
2022/10/02 03:51:21;;;;;;;12.45;1.77;;;14.00;71.30;;;;;;5033747;28;20152;-77
2022/10/02 03:53:46;;;;;;;8.18;1.38;;;14.00;71.50;;;;;;5033716;28;20482;-77
2022/10/02 03:56:28;;;;;;;10.73;2.13;;;14.00;71.50;;;;;;5033790;28;20041;-77
2022/10/02 03:58:56;;;;;;;8.45;1.73;;;14.00;71.80;;;;;;5033698;28;20024;-77
2022/10/02 04:01:30;;;;;;;8.18;1.73;;;14.00;71.70;;;;;;5033659;28;20144;-77
2022/10/02 04:04:09;;;;;;;7.40;1.58;;;13.90;71.60;;;;;;5015738;28;20064;-77
2022/10/02 04:07:03;;;;;;;6.85;1.60;;;13.90;71.60;;;;;;5033339;28;20492;-78
2022/10/02 04:09:37;;;;;;;8.77;1.70;;;13.90;72.00;;;;;;5033475;28;20543;-78
2022/10/02 04:12:33;;;;;;;10.95;1.73;;;13.90;71.70;;;;;;5033315;28;20033;-78
2022/10/02 04:15:13;;;;;;;9.10;1.58;;;13.90;71.60;;;;;;5032670;28;20037;-77
2022/10/02 04:17:54;;;;;;;7.93;1.77;;;13.90;71.50;;;;;;5033420;28;20033;-78
2022/10/02 04:20:30;;;;;;;7.82;1.70;;;14.00;71.30;;;;;;5033250;28;20033;-77
2022/10/02 04:23:19;;;;;;;10.43;1.75;;;14.00;71.30;;;;;;5033410;28;20497;-77
2022/10/02 04:25:54;;;;;;;7.18;1.50;;;14.00;71.40;;;;;;5033066;28;20013;-78
2022/10/02 04:28:25;;;;;;;10.93;1.95;;;14.00;71.00;;;;;;5033239;28;20108;-78
2022/10/02 04:30:52;;;;;;;10.07;1.42;;;14.00;70.70;;;;;;5033019;28;20517;-78
2022/10/02 04:33:19;;;;;;;8.38;1.67;;;14.10;71.50;;;;;;5033061;28;20116;-78
2022/10/02 04:36:03;;;;;;;6.35;1.58;;;14.00;70.90;;;;;;5033005;28;20022;-78
2022/10/02 04:38:50;;;;;;;7.45;1.20;;;14.00;71.60;;;;;;5033020;28;20045;-78
2022/10/02 04:41:51;;;;;;;10.38;1.58;;;14.10;70.90;;;;;;5015263;28;20029;-77
2022/10/02 04:44:55;;;;;;;7.55;1.45;;;14.10;71.00;;;;;;5032980;28;20018;-77
2022/10/02 04:47:48;;;;;;;9.13;1.40;;;14.00;70.90;;;;;;5032968;28;20017;-77
2022/10/02 04:50:44;;;;;;;9.05;1.77;;;14.10;71.10;;;;;;5032863;28;20029;-78
2022/10/02 04:53:27;;;;;;;6.97;1.60;;;14.10;71.00;;;;;;5032818;28;20393;-77
2022/10/02 04:56:27;;;;;;;5.13;1.00;;;14.10;71.20;;;;;;5036233;28;20021;-77
2022/10/02 04:59:04;;;;;;;7.30;1.10;;;14.10;71.10;;;;;;5039490;28;20436;-77
2022/10/02 05:02:00;;;;;;;8.20;0.90;;;14.10;71.40;;;;;;5039356;28;20052;-77
2022/10/02 05:05:07;;;;;;;6.18;1.50;;;14.10;71.40;;;;;;5039535;28;20071;-77
2022/10/02 05:07:53;;;;;;;8.35;1.38;;;14.10;71.40;;;;;;5039075;28;20022;-77
2022/10/02 05:10:28;;;;;;;;;;;14.10;71.90;;;;;;5039751;28;20037;-77
2022/10/02 05:13:17;;;;;;;7.88;1.50;;;14.10;72.20;;;;;;5039244;28;19999;-77
2022/10/02 05:16:18;;;;;;;5.88;1.15;;;14.10;72.10;;;;;;5039188;28;20103;-77
2022/10/02 05:19:00;;;;;;;7.93;1.52;;;14.10;72.10;;;;;;5021467;28;20025;-78
2022/10/02 05:21:45;;;;;;;6.55;1.30;;;14.00;72.40;;;;;;5039347;28;20024;-78
2022/10/02 05:24:48;;;;;;;8.20;1.52;;;14.10;72.60;;;;;;5021377;28;20502;-77
2022/10/02 05:27:44;;;;;;;7.93;1.30;;;14.10;72.20;;;;;;5039066;28;20469;-77
2022/10/02 05:30:18;;;;;;;5.95;1.20;;;14.10;71.70;;;;;;5038924;28;20068;-78
2022/10/02 05:32:59;;;;;;;5.50;1.30;;;14.20;71.90;;;;;;5038883;28;20040;-78
2022/10/02 05:36:03;;;;;;;6.85;1.58;;;14.10;72.30;;;;;;5039097;28;20029;-78
2022/10/02 05:38:51;;;;;;;4.88;1.38;;;14.10;72.40;;;;;;5033980;28;20466;-78
2022/10/02 05:41:49;;;;;;;13.68;2.05;;;14.10;72.30;;;;;;5038970;28;20028;-79
2022/10/02 05:44:27;;;;;;;7.35;1.20;;;14.20;72.20;;;;;;5038976;28;20030;-79
2022/10/02 05:47:00;;;;;;;7.82;1.15;;;14.20;72.30;;;;;;5038890;28;20017;-78
2022/10/02 05:49:54;;;;;;;4.63;1.10;;;14.20;71.80;;;;;;5039047;28;20024;-78
2022/10/02 05:52:25;;;;;;;5.65;1.30;;;14.30;71.50;;;;;;5038895;28;20037;-77
2022/10/02 05:55:11;;;;;;;5.28;1.65;;;14.30;71.40;;;;;;5038804;28;20022;-77
2022/10/02 05:57:50;;;;;;;3.92;1.00;;;14.40;70.90;;;;;;5038913;28;20044;-79
2022/10/02 06:00:39;;;;;;;11.38;1.48;;;14.40;70.20;;;;;;5038861;28;20025;-78
2022/10/02 06:03:34;;;;;;;5.72;1.20;;;14.50;70.00;;;;;;5038674;28;20100;-79
2022/10/02 06:06:09;;;;;;;6.73;1.03;;;14.50;70.10;;;;;;5038383;28;20512;-78
2022/10/02 06:08:41;;;;;;;5.13;1.00;;;14.50;70.50;;;;;;5034755;28;20327;-78
2022/10/02 06:11:16;;;;;;;6.55;1.55;;;14.50;71.00;;;;;;5035433;28;20036;-79
2022/10/02 06:13:49;;;;;;;4.60;1.23;;;14.50;70.30;;;;;;5035528;28;20108;-79
2022/10/02 06:16:22;;;;;;;6.40;1.20;;;14.50;70.90;;;;;;5035412;28;20057;-78
2022/10/02 06:18:54;;;;;;;6.80;1.20;;;14.50;70.70;;;;;;5035478;28;20036;-78
2022/10/02 06:21:30;;;;;;;2.88;0.93;;;14.50;70.80;;;;;;5035352;28;20025;-78
2022/10/02 06:23:58;;;;;;;;;;;14.50;70.80;;;;;;5035895;28;20354;-78
2022/10/02 06:26:40;;;;;;;4.68;1.10;;;14.50;71.70;;;;;;5035416;28;19951;-78
2022/10/02 06:29:13;;;;;;;5.88;1.17;;;14.50;71.00;;;;;;5035339;28;20081;-78
2022/10/02 06:32:13;;;;;;;4.85;1.40;;;14.50;71.00;;;;;;5035149;28;20030;-78
2022/10/02 06:34:39;;;;;;;4.40;1.10;;;14.60;71.20;;;;;;5035165;28;20022;-77
2022/10/02 06:37:13;;;;;;;6.70;1.40;;;14.60;71.50;;;;;;5035220;28;20494;-77
2022/10/02 06:40:31;;;;;;;4.53;1.07;;;14.70;71.50;;;;;;5017325;28;20028;-77
2022/10/02 06:43:13;;;;;;;6.10;1.30;;;14.70;71.70;;;;;;5035177;28;20265;-78
2022/10/02 06:45:52;;;;;;;7.72;1.73;;;14.80;71.50;;;;;;5034899;28;20030;-78
2022/10/02 06:48:39;;;;;;;4.22;0.90;;;14.80;71.20;;;;;;5017241;28;20024;-78
2022/10/02 06:51:31;;;;;;;5.70;1.35;;;14.90;71.30;;;;;;5034913;28;20064;-77
2022/10/02 06:54:18;;;;;;;6.20;1.15;;;14.80;72.10;;;;;;5034987;28;20037;-79
2022/10/02 06:57:10;;;;;;;6.90;1.85;;;14.90;71.90;;;;;;5034810;28;20028;-77
2022/10/02 06:59:54;;;;;;;5.38;0.80;;;14.80;72.40;;;;;;5034734;28;20044;-77
2022/10/02 07:02:46;;;;;;;3.95;0.85;;;14.90;72.90;;;;;;5034611;28;20031;-77
2022/10/02 07:05:50;;;;;;;7.18;1.40;;;14.90;73.30;;;;;;5034566;28;20466;-77
2022/10/02 07:08:40;;;;;;;3.72;1.15;;;14.90;74.00;;;;;;5034566;28;20474;-77
2022/10/02 07:11:24;;;;;;;4.00;1.13;;;15.00;73.90;;;;;;5034435;28;20104;-77
2022/10/02 07:13:52;;;;;;;3.88;1.10;;;15.00;73.80;;;;;;5034560;28;20037;-77
2022/10/02 07:16:40;;;;;;;3.10;1.02;;;15.00;73.60;;;;;;5016409;28;20046;-78
2022/10/02 07:19:31;;;;;;;6.35;1.40;;;15.20;74.00;;;;;;5034256;28;20026;-78
2022/10/02 07:22:24;;;;;;;4.47;1.40;;;15.20;74.00;;;;;;5025855;28;20038;-78
2022/10/02 07:25:16;;;;;;;4.93;1.00;;;15.30;74.10;;;;;;5016477;28;20421;-78
2022/10/02 07:28:07;;;;;;;2.95;0.98;;;15.40;73.80;;;;;;5034267;28;20025;-79
2022/10/02 07:30:42;;;;;;;4.55;0.95;;;15.50;73.90;;;;;;5034174;28;20019;-79
2022/10/02 07:33:14;;;;;;;4.93;0.93;;;15.60;73.90;;;;;;5034001;28;20496;-79
2022/10/02 07:35:50;;;;;;;2.70;0.88;;;15.60;73.50;;;;;;5033948;28;20030;-78
2022/10/02 07:38:53;;;;;;;3.75;1.00;;;15.60;73.50;;;;;;5034078;28;20052;-78
2022/10/02 07:41:43;;;;;;;3.28;0.90;;;15.60;73.80;;;;;;5034046;28;20110;-78
2022/10/02 07:44:11;;;;;;;4.85;1.02;;;15.60;73.80;;;;;;5033879;28;20018;-78
2022/10/02 07:46:53;;;;;;;9.13;1.48;;;15.60;73.90;;;;;;5033943;28;20529;-76
2022/10/02 07:49:31;;;;;;;3.30;0.80;;;15.70;74.50;;;;;;5033944;28;20104;-75
2022/10/02 07:52:05;;;;;;;3.33;0.85;;;15.70;74.30;;;;;;5033734;28;20033;-75
2022/10/02 07:54:49;;;;;;;4.82;0.80;;;15.70;74.60;;;;;;5016086;28;20040;-76
2022/10/02 07:57:39;;;;;;;4.07;0.82;;;15.70;74.50;;;;;;5033627;28;20017;-78
2022/10/02 08:00:10;;;;;;;4.28;0.90;;;15.80;74.40;;;;;;5033650;28;20053;-74
2022/10/02 08:02:47;;;;;;;10.15;1.20;;;15.80;74.50;;;;;;5033529;28;20049;-74
2022/10/02 08:05:20;;;;;;;1.90;0.60;;;15.90;74.50;;;;;;5033389;28;20515;-76
2022/10/02 08:07:49;;;;;;;2.65;0.73;;;16.10;74.00;;;;;;5033415;28;20025;-76
2022/10/02 08:10:19;;;;;;;2.95;0.80;;;16.20;73.80;;;;;;5033392;28;20028;-75
2022/10/02 08:13:21;;;;;;;3.58;0.60;;;16.20;73.70;;;;;;5033192;28;20107;-76
2022/10/02 08:15:55;;;;;;;1.05;0.40;;;16.20;74.40;;;;;;5015238;28;20128;-74
2022/10/02 08:18:48;;;;;;;0.35;0.25;;;16.30;74.00;;;;;;5033329;28;20389;-75
2022/10/02 08:21:18;;;;;;;2.65;0.60;;;16.40;73.80;;;;;;5032242;28;20041;-75
2022/10/02 08:23:48;;;;;;;1.00;0.43;;;16.40;73.50;;;;;;5032910;28;20053;-76
2022/10/02 08:26:29;;;;;;;3.42;0.98;;;16.60;73.40;;;;;;5033028;28;20060;-76
2022/10/02 08:29:10;;;;;;;1.35;0.40;;;16.90;73.30;;;;;;5033129;28;20025;-76
2022/10/02 08:31:35;;;;;;;2.45;0.80;;;17.00;72.10;;;;;;5014769;28;20498;-76
2022/10/02 08:34:11;;;;;;;1.05;0.30;;;17.20;72.30;;;;;;5033158;28;20053;-76
2022/10/02 08:36:43;;;;;;;4.38;0.50;;;17.40;71.20;;;;;;5015355;28;20060;-76
2022/10/02 08:39:15;;;;;;;2.63;0.40;;;17.60;70.60;;;;;;5033047;28;20060;-77
2022/10/02 08:42:08;;;;;;;0.73;0.30;;;17.70;70.30;;;;;;5032870;28;20028;-78
2022/10/02 08:45:13;;;;;;;1.60;0.32;;;17.70;70.10;;;;;;5032927;28;20021;-78
2022/10/02 08:48:10;;;;;;;1.15;0.30;;;17.80;70.40;;;;;;5031264;28;20071;-77
2022/10/02 08:50:49;;;;;;;1.88;0.30;;;17.90;69.10;;;;;;5032088;28;20060;-77
2022/10/02 08:53:48;;;;;;;0.30;0.20;;;17.70;70.00;;;;;;5033268;28;20037;-77
2022/10/02 08:56:41;;;;;;;0.13;0.13;;;17.50;70.50;;;;;;5032902;28;20367;-77
2022/10/02 08:59:43;;;;;;;1.65;0.30;;;17.50;70.70;;;;;;5033022;28;20088;-77
2022/10/02 09:02:18;;;;;;;0.52;0.10;;;17.40;70.80;;;;;;5032894;28;20104;-77
2022/10/02 09:05:20;;;;;;;0.80;0.30;;;17.30;71.10;;;;;;5032599;28;20026;-77
2022/10/02 09:08:19;;;;;;;1.55;0.35;;;17.30;71.60;;;;;;5032662;28;20025;-77
2022/10/02 09:11:03;;;;;;;1.45;0.43;;;17.30;71.80;;;;;;5031561;28;20513;-76
2022/10/02 09:13:53;;;;;;;1.35;0.20;;;17.40;71.40;;;;;;5032231;28;20036;-76
2022/10/02 09:16:27;;;;;;;1.75;0.50;;;17.70;71.00;;;;;;5030916;28;20068;-77
2022/10/02 09:19:23;;;;;;;1.98;0.60;;;17.80;70.40;;;;;;5032630;28;20022;-78
2022/10/02 09:21:58;;;;;;;0.47;0.40;;;17.90;70.30;;;;;;5004060;28;20029;-78
2022/10/02 09:25:13;;;;;;;0.57;0.25;;;18.00;70.20;;;;;;5032386;28;20022;-78
2022/10/02 09:28:16;;;;;;;0.85;0.43;;;17.90;70.30;;;;;;5017105;28;20042;-76
2022/10/02 09:31:07;;;;;;;0.55;0.30;;;18.00;70.30;;;;;;5032053;28;20028;-76
2022/10/02 09:33:51;;;;;;;0.95;0.35;;;18.20;69.20;;;;;;5031056;28;20040;-76
2022/10/02 09:36:44;;;;;;;1.23;0.70;;;18.30;69.60;;;;;;4995108;28;20018;-76
2022/10/02 09:39:50;;;;;;;0.40;0.40;;;18.30;69.40;;;;;;4995192;28;20072;-78
2022/10/02 09:42:21;;;;;;;1.30;0.50;;;18.20;69.80;;;;;;5013360;28;20018;-78
2022/10/02 09:45:01;;;;;;;0.55;0.20;;;18.20;69.50;;;;;;5016431;28;20018;-79
2022/10/02 09:47:42;;;;;;;0.40;0.30;;;18.20;69.90;;;;;;5016355;28;20080;-78
2022/10/02 09:50:42;;;;;;;1.52;0.50;;;18.20;70.10;;;;;;5016374;28;20029;-78
2022/10/02 09:53:45;;;;;;;0.40;0.30;;;18.10;70.10;;;;;;5016357;28;20033;-78
2022/10/02 09:56:29;;;;;;;0.50;0.30;;;18.20;70.90;;;;;;4998478;28;20030;-76
2022/10/02 09:59:10;;;;;;;1.88;0.50;;;18.10;71.30;;;;;;5016262;28;20024;-76
2022/10/02 10:01:54;;;;;;;2.40;0.88;;;18.00;71.20;;;;;;5016217;28;20029;-76
2022/10/02 10:04:28;;;;;;;1.75;0.90;;;18.00;71.80;;;;;;5015993;28;20210;-76
2022/10/02 10:06:59;;;;;;;1.60;1.00;;;18.00;72.30;;;;;;5016048;28;20030;-76
2022/10/02 10:10:03;;;;;;;1.13;0.68;;;17.90;72.50;;;;;;5034468;28;20389;-75
2022/10/02 10:12:50;;;;;;;0.93;0.57;;;17.90;72.80;;;;;;5035138;28;20025;-76
2022/10/02 10:15:47;;;;;;;2.47;0.30;;;17.90;71.80;;;;;;5032920;28;20046;-76
2022/10/02 10:18:14;;;;;;;;;;;17.90;68.50;;;;;;5036081;28;20428;-76
2022/10/02 10:20:59;;;;;;;0.25;0.20;;;18.00;67.30;;;;;;5035353;28;20011;-76
2022/10/02 10:23:35;;;;;;;0.55;0.28;;;18.00;67.60;;;;;;5035426;28;20053;-77
2022/10/02 10:26:44;;;;;;;1.85;0.20;;;18.00;68.20;;;;;;5035437;28;20029;-77
2022/10/02 10:29:27;;;;;;;1.30;0.55;;;18.00;67.60;;;;;;5035215;28;20022;-77
2022/10/02 10:32:17;;;;;;;0.60;0.40;;;18.10;67.90;;;;;;5035239;28;20042;-77
2022/10/02 10:34:46;;;;;;;2.00;0.30;;;18.20;66.70;;;;;;5035057;28;20026;-76
2022/10/02 10:40:34;;;;;;;0.52;0.43;;;18.40;66.30;;;;;;5033213;28;20060;-76
2022/10/02 10:43:40;;;;;;;0.38;0.22;;;18.40;67.00;;;;;;5015289;28;20426;-77
2022/10/02 10:46:27;;;;;;;0.20;0.20;;;18.30;66.50;;;;;;5015241;28;20180;-77
2022/10/02 10:49:21;;;;;;;0.43;0.30;;;18.30;67.20;;;;;;5015079;28;20021;-77
2022/10/02 10:52:25;;;;;;;0.63;0.50;;;18.30;67.50;;;;;;5014911;28;20117;-76
2022/10/02 10:55:06;;;;;;;1.80;0.75;;;18.40;67.70;;;;;;5014260;28;20486;-76
2022/10/02 10:57:54;;;;;;;0.20;0.20;;;18.40;68.20;;;;;;5015068;28;20525;-76
2022/10/02 11:01:16;;;;;;;0.60;0.32;;;18.00;68.60;;;;;;5015041;28;20038;-76
2022/10/02 11:03:59;;;;;;;1.95;0.22;;;17.80;71.10;;;;;;4996616;28;20033;-75
2022/10/02 11:06:50;;;;;;;0.57;0.22;;;17.60;74.80;;;;;;5014930;28;20021;-77
2022/10/02 11:09:25;;;;;;;0.88;0.30;;;17.50;77.10;;;;;;5014464;28;20018;-77
2022/10/02 11:11:59;;;;;;;0.20;0.20;;;17.20;79.40;;;;;;5022680;28;20038;-78
2022/10/02 11:14:34;;;;;;;0.40;0.40;;;17.00;78.20;;;;;;5015445;28;20022;-75
2022/10/02 11:17:36;;;;;;;0.40;0.30;;;17.00;78.40;;;;;;5033230;28;20056;-74
2022/10/02 11:20:35;;;;;;;1.48;1.00;;;16.90;79.40;;;;;;5033088;28;20057;-75
2022/10/02 11:23:31;;;;;;;0.88;0.50;;;17.00;79.40;;;;;;5032784;28;20013;-75
2022/10/02 11:26:08;;;;;;;0.38;0.30;;;17.00;79.20;;;;;;5034395;28;20412;-77
2022/10/02 11:28:45;;;;;;;1.65;0.30;;;17.00;78.60;;;;;;5034539;28;20022;-75
2022/10/02 11:31:40;;;;;;;0.22;0.20;;;17.10;78.10;;;;;;5033120;28;20191;-76
2022/10/02 11:34:24;;;;;;;1.27;0.30;;;17.10;77.30;;;;;;5033827;28;20048;-77
2022/10/02 11:37:08;;;;;;;0.52;0.52;;;17.00;78.50;;;;;;5034028;28;20033;-75
2022/10/02 11:40:02;;;;;;;0.15;0.15;;;17.10;77.80;;;;;;5033849;28;20104;-75
2022/10/02 11:42:28;;;;;;;0.20;0.20;;;17.10;78.10;;;;;;5033935;28;20021;-76
2022/10/02 11:45:03;;;;;;;0.82;0.45;;;17.10;78.40;;;;;;5033646;28;20051;-75
2022/10/02 11:48:08;;;;;;;2.78;0.52;;;17.10;78.20;;;;;;5033632;28;20030;-77
2022/10/02 11:50:41;;;;;;;0.93;0.38;;;17.20;78.20;;;;;;5033805;28;20030;-75
2022/10/02 11:53:24;;;;;;;2.08;0.55;;;17.20;78.90;;;;;;5015967;28;20417;-77
2022/10/02 11:56:13;;;;;;;0.93;0.50;;;17.30;78.20;;;;;;5033903;28;20026;-77
2022/10/02 11:59:00;;;;;;;2.80;0.73;;;17.40;78.50;;;;;;5033818;28;20096;-75
2022/10/02 12:01:41;;;;;;;0.82;0.50;;;17.40;79.30;;;;;;5015832;28;20021;-75
2022/10/02 12:04:43;;;;;;;0.65;0.45;;;17.40;78.20;;;;;;5033438;28;20017;-76
2022/10/02 12:07:51;;;;;;;0.63;0.30;;;17.40;77.70;;;;;;5014455;28;20036;-77
2022/10/02 12:10:27;;;;;;;0.52;0.45;;;17.50;78.10;;;;;;5035658;28;20022;-77
2022/10/02 12:13:14;;;;;;;0.70;0.57;;;17.60;78.20;;;;;;5042027;28;20033;-79
2022/10/02 12:16:07;;;;;;;1.13;0.65;;;17.70;77.60;;;;;;5042136;28;20160;-78
2022/10/02 12:19:07;;;;;;;0.30;0.17;;;17.70;77.30;;;;;;5040919;28;20057;-78
2022/10/02 12:27:54;;;;;;;0.22;0.20;;;17.60;76.10;;;;;;5033285;28;20036;-78
2022/10/02 12:30:24;;;;;;;0.38;0.10;;;17.70;76.50;;;;;;5033089;28;20056;-78
2022/10/02 12:33:16;;;;;;;0.55;0.30;;;17.80;76.80;;;;;;5033299;28;20038;-79
2022/10/02 12:36:04;;;;;;;0.68;0.20;;;18.10;76.20;;;;;;5033072;28;20057;-79
2022/10/02 12:38:48;;;;;;;0.32;0.28;;;18.40;74.50;;;;;;5015791;28;20072;-78
2022/10/02 12:41:45;;;;;;;0.20;0.10;;;18.50;74.50;;;;;;5033050;28;20018;-78
2022/10/02 12:44:30;;;;;;;2.05;0.20;;;18.60;73.80;;;;;;5032877;28;20117;-78
2022/10/02 12:47:46;;;;;;;1.77;0.20;;;18.50;73.60;;;;;;5032891;28;20029;-78
2022/10/02 12:50:39;;;;;;;0.20;0.10;;;18.40;75.00;;;;;;4971692;28;20034;-78
2022/10/02 12:53:43;;;;;;;0.13;0.10;;;18.50;75.20;;;;;;4972102;28;20038;-80
2022/10/02 12:56:30;;;;;;;0.20;0.10;;;18.40;74.70;;;;;;5027284;28;20030;-80
2022/10/02 12:59:02;;;;;;;0.82;0.10;;;18.20;75.50;;;;;;5032904;28;20072;-80
2022/10/02 13:01:50;;;;;;;0.50;0.30;;;18.10;77.50;;;;;;5032868;28;20108;-80
2022/10/02 13:04:45;;;;;;;0.75;0.40;;;18.10;77.20;;;;;;5032925;28;20107;-80
2022/10/02 13:07:17;;;;;;;0.10;0.10;;;18.00;77.40;;;;;;5032919;28;20029;-80
2022/10/02 13:10:07;;;;;;;0.35;0.35;;;17.90;76.90;;;;;;5015045;28;20017;-77
2022/10/02 13:12:49;;;;;;;2.03;0.40;;;17.90;78.50;;;;;;5032673;28;20032;-78
2022/10/02 13:15:15;;;;;;;0.70;0.70;;;17.90;79.60;;;;;;5032711;28;20048;-78
2022/10/02 13:18:05;;;;;;;1.15;0.60;;;17.80;81.00;;;;;;5035812;28;20021;-77
2022/10/02 13:20:44;;;;;;;1.42;0.60;;;17.60;82.60;;;;;;5036687;28;20033;-77
2022/10/02 13:23:33;;;;;;;3.30;0.70;;;17.50;84.40;;;;;;5036726;28;20152;-78
2022/10/02 13:26:21;;;;;;;1.25;0.52;;;17.30;85.40;;;;;;5036713;28;20102;-78
2022/10/02 13:29:05;;;;;;;2.35;1.05;;;17.10;86.30;;;;;;5036406;28;20381;-77
2022/10/02 13:31:54;;;;;;;3.78;0.80;;;17.00;86.50;;;;;;5036507;28;20483;-77
2022/10/02 13:34:47;;;;;;;4.70;1.30;;;17.00;87.10;;;;;;5036495;28;20079;-76
2022/10/02 13:37:48;;;;;;;3.17;1.15;;;16.80;89.00;;;;;;5036454;28;20041;-78
2022/10/02 13:40:47;;;;;;;2.58;1.20;;;16.60;90.00;;;;;;5036055;28;20068;-79
2022/10/02 13:43:26;;;;;;;4.43;1.52;;;16.40;90.80;;;;;;5035991;28;20025;-78
2022/10/02 13:46:30;;;;;;;2.85;1.38;;;16.30;91.50;;;;;;5034813;28;20482;-80
2022/10/02 13:49:10;;;;;;;1.25;0.93;;;16.20;91.80;;;;;;5035997;28;20021;-81
2022/10/02 13:51:47;;;;;;;2.05;0.93;;;16.30;91.60;;;;;;5035673;28;20025;-81
2022/10/02 13:54:24;;;;;;;1.55;1.00;;;16.20;91.80;;;;;;5035877;28;20025;-82
2022/10/02 13:57:12;;;;;;;3.00;1.15;;;16.20;92.20;;;;;;5035952;28;20513;-81
2022/10/02 13:59:47;;;;;;;2.30;1.10;;;16.20;92.50;;;;;;5018014;28;20069;-82
2022/10/02 14:02:55;;;;;;;3.20;1.00;;;16.10;93.50;;;;;;5035654;28;20075;-82
2022/10/02 14:05:52;;;;;;;3.50;1.60;;;15.90;94.00;;;;;;5017851;28;20119;-80
2022/10/02 14:08:33;;;;;;;2.20;0.80;;;15.80;94.10;;;;;;5035707;28;20025;-79
2022/10/02 14:11:33;;;;;;;3.85;1.10;;;15.80;94.40;;;;;;5035494;28;20064;-82
2022/10/02 14:14:30;;;;;;;5.97;1.70;;;15.70;92.80;;;;;;5026780;28;20041;-77